sensor_id;sensor_type;location;lat;lon;timestamp;temperature;humidity
15483;DHT22;7843;50.330;7.312;2023-03-20T00:01:24;9.20;99.90
15483;DHT22;7843;50.330;7.312;2023-03-20T00:03:51;9.20;99.90
15483;DHT22;7843;50.330;7.312;2023-03-20T00:06:26;9.20;99.90
15483;DHT22;7843;50.330;7.312;2023-03-20T00:08:56;9.20;99.90
15483;DHT22;7843;50.330;7.312;2023-03-20T00:11:34;9.20;99.90
15483;DHT22;7843;50.330;7.312;2023-03-20T00:14:03;9.20;99.90
15483;DHT22;7843;50.330;7.312;2023-03-20T00:16:36;9.20;99.90
15483;DHT22;7843;50.330;7.312;2023-03-20T00:19:05;9.20;99.90
15483;DHT22;7843;50.330;7.312;2023-03-20T00:21:32;9.30;99.90
15483;DHT22;7843;50.330;7.312;2023-03-20T00:23:59;9.20;99.90
15483;DHT22;7843;50.330;7.312;2023-03-20T00:26:32;9.20;99.90
15483;DHT22;7843;50.330;7.312;2023-03-20T00:28:58;9.20;99.90
15483;DHT22;7843;50.330;7.312;2023-03-20T00:31:37;9.30;99.90
15483;DHT22;7843;50.330;7.312;2023-03-20T00:34:08;9.30;99.90
15483;DHT22;7843;50.330;7.312;2023-03-20T00:36:36;9.30;99.90
15483;DHT22;7843;50.330;7.312;2023-03-20T00:39:03;9.40;99.90
15483;DHT22;7843;50.330;7.312;2023-03-20T00:44:17;9.40;99.90
15483;DHT22;7843;50.330;7.312;2023-03-20T00:46:47;9.40;99.90
15483;DHT22;7843;50.330;7.312;2023-03-20T00:49:15;9.40;99.90
15483;DHT22;7843;50.330;7.312;2023-03-20T00:51:42;9.40;99.90
15483;DHT22;7843;50.330;7.312;2023-03-20T00:54:14;9.30;99.90
15483;DHT22;7843;50.330;7.312;2023-03-20T00:56:59;9.30;99.90
15483;DHT22;7843;50.330;7.312;2023-03-20T00:59:30;9.30;99.90
15483;DHT22;7843;50.330;7.312;2023-03-20T01:01:58;9.30;99.90
15483;DHT22;7843;50.330;7.312;2023-03-20T01:04:38;9.30;99.90
15483;DHT22;7843;50.330;7.312;2023-03-20T01:07:06;9.30;99.90
15483;DHT22;7843;50.330;7.312;2023-03-20T01:09:33;9.30;99.90
15483;DHT22;7843;50.330;7.312;2023-03-20T01:12:00;9.30;99.90
15483;DHT22;7843;50.330;7.312;2023-03-20T01:14:27;9.20;99.90
15483;DHT22;7843;50.330;7.312;2023-03-20T01:16:54;9.20;99.90
15483;DHT22;7843;50.330;7.312;2023-03-20T01:19:21;9.20;99.90
15483;DHT22;7843;50.330;7.312;2023-03-20T01:21:48;9.20;99.90
15483;DHT22;7843;50.330;7.312;2023-03-20T01:24:14;9.20;99.90
15483;DHT22;7843;50.330;7.312;2023-03-20T01:26:43;9.10;99.90
15483;DHT22;7843;50.330;7.312;2023-03-20T01:29:20;9.10;99.90
15483;DHT22;7843;50.330;7.312;2023-03-20T01:31:48;9.10;99.90
15483;DHT22;7843;50.330;7.312;2023-03-20T01:34:15;9.00;99.90
15483;DHT22;7843;50.330;7.312;2023-03-20T01:36:50;9.00;99.90
15483;DHT22;7843;50.330;7.312;2023-03-20T01:39:25;8.90;99.90
15483;DHT22;7843;50.330;7.312;2023-03-20T01:41:53;8.80;99.90
15483;DHT22;7843;50.330;7.312;2023-03-20T01:44:27;8.80;99.90
15483;DHT22;7843;50.330;7.312;2023-03-20T01:46:54;8.80;99.90
15483;DHT22;7843;50.330;7.312;2023-03-20T01:51:48;8.80;99.90
15483;DHT22;7843;50.330;7.312;2023-03-20T01:56:50;8.70;99.90
15483;DHT22;7843;50.330;7.312;2023-03-20T01:59:34;8.70;99.90
15483;DHT22;7843;50.330;7.312;2023-03-20T02:02:01;8.70;99.90
15483;DHT22;7843;50.330;7.312;2023-03-20T02:04:34;8.70;99.90
15483;DHT22;7843;50.330;7.312;2023-03-20T02:07:02;8.70;99.90
15483;DHT22;7843;50.330;7.312;2023-03-20T02:09:30;8.70;99.90
15483;DHT22;7843;50.330;7.312;2023-03-20T02:11:58;8.70;99.90
15483;DHT22;7843;50.330;7.312;2023-03-20T02:14:27;8.70;99.90
15483;DHT22;7843;50.330;7.312;2023-03-20T02:16:53;8.70;99.90
15483;DHT22;7843;50.330;7.312;2023-03-20T02:28:25;8.70;99.90
15483;DHT22;7843;50.330;7.312;2023-03-20T02:33:58;8.60;99.90
15483;DHT22;7843;50.330;7.312;2023-03-20T02:36:50;8.60;99.90
15483;DHT22;7843;50.330;7.312;2023-03-20T02:45:21;8.60;99.90
15483;DHT22;7843;50.330;7.312;2023-03-20T02:48:03;8.60;99.90
15483;DHT22;7843;50.330;7.312;2023-03-20T02:50:58;8.60;99.90
15483;DHT22;7843;50.330;7.312;2023-03-20T02:56:27;8.50;99.90
15483;DHT22;7843;50.330;7.312;2023-03-20T02:59:06;8.50;99.90
15483;DHT22;7843;50.330;7.312;2023-03-20T03:01:45;8.50;99.90
15483;DHT22;7843;50.330;7.312;2023-03-20T03:04:18;8.50;99.90
15483;DHT22;7843;50.330;7.312;2023-03-20T03:06:47;8.50;99.90
15483;DHT22;7843;50.330;7.312;2023-03-20T03:09:28;8.50;99.90
15483;DHT22;7843;50.330;7.312;2023-03-20T03:12:00;8.50;99.90
15483;DHT22;7843;50.330;7.312;2023-03-20T03:17:01;8.50;99.90
15483;DHT22;7843;50.330;7.312;2023-03-20T03:19:30;8.50;99.90
15483;DHT22;7843;50.330;7.312;2023-03-20T03:21:58;8.50;99.90
15483;DHT22;7843;50.330;7.312;2023-03-20T03:24:31;8.40;99.90
15483;DHT22;7843;50.330;7.312;2023-03-20T03:27:24;8.40;99.90
15483;DHT22;7843;50.330;7.312;2023-03-20T03:29:59;8.40;99.90
15483;DHT22;7843;50.330;7.312;2023-03-20T03:32:33;8.40;99.90
15483;DHT22;7843;50.330;7.312;2023-03-20T03:35:03;8.40;99.90
15483;DHT22;7843;50.330;7.312;2023-03-20T03:43:06;8.40;99.90
15483;DHT22;7843;50.330;7.312;2023-03-20T03:45:38;8.40;99.90
15483;DHT22;7843;50.330;7.312;2023-03-20T03:48:16;8.40;99.90
15483;DHT22;7843;50.330;7.312;2023-03-20T03:50:53;8.40;99.90
15483;DHT22;7843;50.330;7.312;2023-03-20T03:53:25;8.40;99.90
15483;DHT22;7843;50.330;7.312;2023-03-20T03:55:58;8.40;99.90
15483;DHT22;7843;50.330;7.312;2023-03-20T03:58:30;8.40;99.90
15483;DHT22;7843;50.330;7.312;2023-03-20T04:00:58;8.40;99.90
15483;DHT22;7843;50.330;7.312;2023-03-20T04:03:30;8.30;99.90
15483;DHT22;7843;50.330;7.312;2023-03-20T04:05:59;8.30;99.90
15483;DHT22;7843;50.330;7.312;2023-03-20T04:08:27;8.30;99.90
15483;DHT22;7843;50.330;7.312;2023-03-20T04:10:53;8.30;99.90
15483;DHT22;7843;50.330;7.312;2023-03-20T04:13:20;8.30;99.90
15483;DHT22;7843;50.330;7.312;2023-03-20T04:15:47;8.30;99.90
15483;DHT22;7843;50.330;7.312;2023-03-20T04:18:14;8.30;99.90
15483;DHT22;7843;50.330;7.312;2023-03-20T04:20:46;8.30;99.90
15483;DHT22;7843;50.330;7.312;2023-03-20T04:23:14;8.30;99.90
15483;DHT22;7843;50.330;7.312;2023-03-20T04:25:41;8.20;99.90
15483;DHT22;7843;50.330;7.312;2023-03-20T04:28:08;8.20;99.90
15483;DHT22;7843;50.330;7.312;2023-03-20T04:30:36;8.20;99.90
15483;DHT22;7843;50.330;7.312;2023-03-20T04:33:03;8.20;99.90
15483;DHT22;7843;50.330;7.312;2023-03-20T04:35:29;8.30;99.90
15483;DHT22;7843;50.330;7.312;2023-03-20T04:37:56;8.20;99.90
15483;DHT22;7843;50.330;7.312;2023-03-20T04:40:22;8.20;99.90
15483;DHT22;7843;50.330;7.312;2023-03-20T04:42:49;8.20;99.90
15483;DHT22;7843;50.330;7.312;2023-03-20T04:45:16;8.20;99.90
15483;DHT22;7843;50.330;7.312;2023-03-20T04:47:43;8.20;99.90
15483;DHT22;7843;50.330;7.312;2023-03-20T04:50:10;8.20;99.90
15483;DHT22;7843;50.330;7.312;2023-03-20T04:52:37;8.20;99.90
15483;DHT22;7843;50.330;7.312;2023-03-20T04:55:04;8.20;99.90
15483;DHT22;7843;50.330;7.312;2023-03-20T04:57:33;8.10;99.90
15483;DHT22;7843;50.330;7.312;2023-03-20T04:59:59;8.20;99.90
15483;DHT22;7843;50.330;7.312;2023-03-20T05:02:26;8.10;99.90
15483;DHT22;7843;50.330;7.312;2023-03-20T05:04:53;8.10;99.90
15483;DHT22;7843;50.330;7.312;2023-03-20T05:07:19;8.10;99.90
15483;DHT22;7843;50.330;7.312;2023-03-20T05:09:46;8.10;99.90
15483;DHT22;7843;50.330;7.312;2023-03-20T05:12:13;8.10;99.90
15483;DHT22;7843;50.330;7.312;2023-03-20T05:14:40;8.10;99.90
15483;DHT22;7843;50.330;7.312;2023-03-20T05:17:07;8.10;99.90
15483;DHT22;7843;50.330;7.312;2023-03-20T05:19:33;8.10;99.90
15483;DHT22;7843;50.330;7.312;2023-03-20T05:22:00;8.00;99.90
15483;DHT22;7843;50.330;7.312;2023-03-20T05:24:27;8.00;99.90
15483;DHT22;7843;50.330;7.312;2023-03-20T05:26:54;8.00;99.90
15483;DHT22;7843;50.330;7.312;2023-03-20T05:29:21;8.00;99.90
15483;DHT22;7843;50.330;7.312;2023-03-20T05:31:48;8.00;99.90
15483;DHT22;7843;50.330;7.312;2023-03-20T05:34:14;8.00;99.90
15483;DHT22;7843;50.330;7.312;2023-03-20T05:36:41;8.00;99.90
15483;DHT22;7843;50.330;7.312;2023-03-20T05:39:08;8.00;99.90
15483;DHT22;7843;50.330;7.312;2023-03-20T05:41:35;8.00;99.90
15483;DHT22;7843;50.330;7.312;2023-03-20T05:44:01;7.90;99.90
15483;DHT22;7843;50.330;7.312;2023-03-20T05:46:28;7.90;99.90
15483;DHT22;7843;50.330;7.312;2023-03-20T05:48:55;7.80;99.90
15483;DHT22;7843;50.330;7.312;2023-03-20T05:51:22;7.70;99.90
15483;DHT22;7843;50.330;7.312;2023-03-20T05:53:48;7.70;99.90
15483;DHT22;7843;50.330;7.312;2023-03-20T05:56:15;7.60;99.90
15483;DHT22;7843;50.330;7.312;2023-03-20T05:58:41;7.60;99.90
15483;DHT22;7843;50.330;7.312;2023-03-20T06:01:08;7.60;99.90
15483;DHT22;7843;50.330;7.312;2023-03-20T06:03:35;7.50;99.90
15483;DHT22;7843;50.330;7.312;2023-03-20T06:06:03;7.50;99.90
15483;DHT22;7843;50.330;7.312;2023-03-20T06:08:29;7.40;99.90
15483;DHT22;7843;50.330;7.312;2023-03-20T06:10:56;7.40;99.90
15483;DHT22;7843;50.330;7.312;2023-03-20T06:13:23;7.40;99.90
15483;DHT22;7843;50.330;7.312;2023-03-20T06:15:49;7.40;99.90
15483;DHT22;7843;50.330;7.312;2023-03-20T06:18:16;7.40;99.90
15483;DHT22;7843;50.330;7.312;2023-03-20T06:20:43;7.50;99.90
15483;DHT22;7843;50.330;7.312;2023-03-20T06:23:09;7.60;99.90
15483;DHT22;7843;50.330;7.312;2023-03-20T06:25:36;7.70;99.90
15483;DHT22;7843;50.330;7.312;2023-03-20T06:28:04;7.70;99.90
15483;DHT22;7843;50.330;7.312;2023-03-20T06:30:30;7.80;99.90
15483;DHT22;7843;50.330;7.312;2023-03-20T06:32:57;7.90;99.90
15483;DHT22;7843;50.330;7.312;2023-03-20T06:35:24;8.00;99.90
15483;DHT22;7843;50.330;7.312;2023-03-20T06:37:50;8.10;99.90
15483;DHT22;7843;50.330;7.312;2023-03-20T06:40:17;8.30;99.90
15483;DHT22;7843;50.330;7.312;2023-03-20T06:42:44;8.40;99.90
15483;DHT22;7843;50.330;7.312;2023-03-20T06:45:10;8.60;99.90
15483;DHT22;7843;50.330;7.312;2023-03-20T06:47:37;8.60;99.90
15483;DHT22;7843;50.330;7.312;2023-03-20T06:50:04;8.70;99.90
15483;DHT22;7843;50.330;7.312;2023-03-20T06:52:31;8.70;99.90
15483;DHT22;7843;50.330;7.312;2023-03-20T06:54:58;8.80;99.90
15483;DHT22;7843;50.330;7.312;2023-03-20T06:57:24;8.80;99.90
15483;DHT22;7843;50.330;7.312;2023-03-20T06:59:51;8.80;99.90
15483;DHT22;7843;50.330;7.312;2023-03-20T07:02:18;8.80;99.90
15483;DHT22;7843;50.330;7.312;2023-03-20T07:04:45;8.70;99.90
15483;DHT22;7843;50.330;7.312;2023-03-20T07:07:12;8.70;99.90
15483;DHT22;7843;50.330;7.312;2023-03-20T07:09:39;8.70;99.90
15483;DHT22;7843;50.330;7.312;2023-03-20T07:12:12;8.80;99.90
15483;DHT22;7843;50.330;7.312;2023-03-20T07:14:41;8.90;99.90
15483;DHT22;7843;50.330;7.312;2023-03-20T07:17:08;9.00;99.90
15483;DHT22;7843;50.330;7.312;2023-03-20T07:19:35;9.10;99.90
15483;DHT22;7843;50.330;7.312;2023-03-20T07:22:06;9.10;99.90
15483;DHT22;7843;50.330;7.312;2023-03-20T07:24:33;9.30;99.90
15483;DHT22;7843;50.330;7.312;2023-03-20T07:27:00;9.40;99.90
15483;DHT22;7843;50.330;7.312;2023-03-20T07:29:27;9.40;99.90
15483;DHT22;7843;50.330;7.312;2023-03-20T07:31:53;9.50;99.90
15483;DHT22;7843;50.330;7.312;2023-03-20T07:34:21;9.50;99.90
15483;DHT22;7843;50.330;7.312;2023-03-20T07:36:47;9.50;99.90
15483;DHT22;7843;50.330;7.312;2023-03-20T07:39:14;9.60;99.90
15483;DHT22;7843;50.330;7.312;2023-03-20T07:41:40;9.70;99.90
15483;DHT22;7843;50.330;7.312;2023-03-20T07:44:07;9.70;99.90
15483;DHT22;7843;50.330;7.312;2023-03-20T07:46:35;9.80;99.90
15483;DHT22;7843;50.330;7.312;2023-03-20T07:49:02;9.80;99.90
15483;DHT22;7843;50.330;7.312;2023-03-20T07:51:29;9.80;99.90
15483;DHT22;7843;50.330;7.312;2023-03-20T07:53:56;9.80;99.90
15483;DHT22;7843;50.330;7.312;2023-03-20T07:56:22;9.80;99.90
15483;DHT22;7843;50.330;7.312;2023-03-20T07:58:49;9.80;99.90
15483;DHT22;7843;50.330;7.312;2023-03-20T08:01:16;9.90;99.90
15483;DHT22;7843;50.330;7.312;2023-03-20T08:03:42;10.00;99.90
15483;DHT22;7843;50.330;7.312;2023-03-20T08:06:09;10.20;99.90
15483;DHT22;7843;50.330;7.312;2023-03-20T08:08:36;10.30;99.20
15483;DHT22;7843;50.330;7.312;2023-03-20T08:11:03;10.40;99.10
15483;DHT22;7843;50.330;7.312;2023-03-20T08:13:30;10.60;97.80
15483;DHT22;7843;50.330;7.312;2023-03-20T08:15:56;10.70;97.10
15483;DHT22;7843;50.330;7.312;2023-03-20T08:18:23;10.70;95.50
15483;DHT22;7843;50.330;7.312;2023-03-20T08:20:50;10.80;95.50
15483;DHT22;7843;50.330;7.312;2023-03-20T08:23:17;10.80;95.30
15483;DHT22;7843;50.330;7.312;2023-03-20T08:25:50;10.90;95.40
15483;DHT22;7843;50.330;7.312;2023-03-20T08:28:17;11.00;94.30
15483;DHT22;7843;50.330;7.312;2023-03-20T08:30:44;10.90;93.10
15483;DHT22;7843;50.330;7.312;2023-03-20T08:33:11;10.90;93.80
15483;DHT22;7843;50.330;7.312;2023-03-20T08:35:38;11.00;93.60
15483;DHT22;7843;50.330;7.312;2023-03-20T08:38:05;11.10;94.60
15483;DHT22;7843;50.330;7.312;2023-03-20T08:40:31;11.20;94.10
15483;DHT22;7843;50.330;7.312;2023-03-20T08:42:58;11.10;91.40
15483;DHT22;7843;50.330;7.312;2023-03-20T08:45:25;11.10;92.10
15483;DHT22;7843;50.330;7.312;2023-03-20T08:47:52;11.20;91.70
15483;DHT22;7843;50.330;7.312;2023-03-20T08:50:19;11.20;90.90
15483;DHT22;7843;50.330;7.312;2023-03-20T08:52:45;11.10;89.10
15483;DHT22;7843;50.330;7.312;2023-03-20T08:55:14;11.00;90.30
15483;DHT22;7843;50.330;7.312;2023-03-20T08:57:41;10.90;90.40
15483;DHT22;7843;50.330;7.312;2023-03-20T09:00:10;10.80;90.30
15483;DHT22;7843;50.330;7.312;2023-03-20T09:02:38;10.80;90.70
15483;DHT22;7843;50.330;7.312;2023-03-20T09:05:05;10.90;90.50
15483;DHT22;7843;50.330;7.312;2023-03-20T09:07:32;10.70;89.60
15483;DHT22;7843;50.330;7.312;2023-03-20T09:09:59;10.50;89.40
15483;DHT22;7843;50.330;7.312;2023-03-20T09:12:26;10.50;89.30
15483;DHT22;7843;50.330;7.312;2023-03-20T09:14:53;10.50;90.40
15483;DHT22;7843;50.330;7.312;2023-03-20T09:17:20;10.70;90.80
15483;DHT22;7843;50.330;7.312;2023-03-20T09:19:46;10.80;89.80
15483;DHT22;7843;50.330;7.312;2023-03-20T09:22:14;11.00;89.70
15483;DHT22;7843;50.330;7.312;2023-03-20T09:24:41;11.10;88.20
15483;DHT22;7843;50.330;7.312;2023-03-20T09:27:07;11.10;88.50
15483;DHT22;7843;50.330;7.312;2023-03-20T09:29:34;11.20;89.10
15483;DHT22;7843;50.330;7.312;2023-03-20T09:32:01;11.20;88.80
15483;DHT22;7843;50.330;7.312;2023-03-20T09:34:28;11.30;87.10
15483;DHT22;7843;50.330;7.312;2023-03-20T09:36:54;11.40;87.80
15483;DHT22;7843;50.330;7.312;2023-03-20T09:39:21;11.40;85.50
15483;DHT22;7843;50.330;7.312;2023-03-20T09:41:49;11.40;86.10
15483;DHT22;7843;50.330;7.312;2023-03-20T09:44:36;11.40;87.00
15483;DHT22;7843;50.330;7.312;2023-03-20T09:50:05;11.40;85.40
15483;DHT22;7843;50.330;7.312;2023-03-20T09:52:41;11.50;86.50
15483;DHT22;7843;50.330;7.312;2023-03-20T09:55:16;11.60;86.10
15483;DHT22;7843;50.330;7.312;2023-03-20T09:57:49;11.60;85.20
15483;DHT22;7843;50.330;7.312;2023-03-20T10:00:26;11.80;85.90
15483;DHT22;7843;50.330;7.312;2023-03-20T10:03:02;11.80;84.50
15483;DHT22;7843;50.330;7.312;2023-03-20T10:05:51;11.90;82.70
15483;DHT22;7843;50.330;7.312;2023-03-20T10:08:21;11.90;80.70
15483;DHT22;7843;50.330;7.312;2023-03-20T10:14:09;12.00;81.50
15483;DHT22;7843;50.330;7.312;2023-03-20T10:19:23;12.10;81.30
15483;DHT22;7843;50.330;7.312;2023-03-20T10:24:39;12.30;79.70
15483;DHT22;7843;50.330;7.312;2023-03-20T10:27:33;12.20;80.00
15483;DHT22;7843;50.330;7.312;2023-03-20T10:30:17;12.30;78.50
15483;DHT22;7843;50.330;7.312;2023-03-20T10:32:58;12.30;77.90
15483;DHT22;7843;50.330;7.312;2023-03-20T10:35:44;12.20;77.30
15483;DHT22;7843;50.330;7.312;2023-03-20T10:38:20;12.00;78.50
15483;DHT22;7843;50.330;7.312;2023-03-20T10:40:50;11.90;78.40
15483;DHT22;7843;50.330;7.312;2023-03-20T10:43:30;12.00;79.40
15483;DHT22;7843;50.330;7.312;2023-03-20T10:46:07;12.20;79.50
15483;DHT22;7843;50.330;7.312;2023-03-20T10:51:20;12.20;77.00
15483;DHT22;7843;50.330;7.312;2023-03-20T10:54:01;12.40;78.10
15483;DHT22;7843;50.330;7.312;2023-03-20T10:56:37;12.60;77.30
15483;DHT22;7843;50.330;7.312;2023-03-20T10:59:13;12.70;77.50
15483;DHT22;7843;50.330;7.312;2023-03-20T11:01:42;12.80;78.20
15483;DHT22;7843;50.330;7.312;2023-03-20T11:04:09;12.90;77.20
15483;DHT22;7843;50.330;7.312;2023-03-20T11:09:22;12.80;76.80
15483;DHT22;7843;50.330;7.312;2023-03-20T11:11:52;12.80;76.50
15483;DHT22;7843;50.330;7.312;2023-03-20T11:14:23;12.70;74.90
15483;DHT22;7843;50.330;7.312;2023-03-20T11:16:55;12.60;74.10
15483;DHT22;7843;50.330;7.312;2023-03-20T11:19:25;12.40;76.40
15483;DHT22;7843;50.330;7.312;2023-03-20T11:21:54;12.30;77.50
15483;DHT22;7843;50.330;7.312;2023-03-20T11:24:41;12.30;76.40
15483;DHT22;7843;50.330;7.312;2023-03-20T11:27:12;12.20;76.00
15483;DHT22;7843;50.330;7.312;2023-03-20T11:29:41;12.40;77.60
15483;DHT22;7843;50.330;7.312;2023-03-20T11:34:43;12.40;77.10
15483;DHT22;7843;50.330;7.312;2023-03-20T11:37:33;12.30;76.20
15483;DHT22;7843;50.330;7.312;2023-03-20T11:40:20;12.40;75.80
15483;DHT22;7843;50.330;7.312;2023-03-20T11:43:05;12.40;74.10
15483;DHT22;7843;50.330;7.312;2023-03-20T11:45:56;12.40;73.80
15483;DHT22;7843;50.330;7.312;2023-03-20T11:48:46;12.60;75.30
15483;DHT22;7843;50.330;7.312;2023-03-20T11:51:18;12.80;74.60
15483;DHT22;7843;50.330;7.312;2023-03-20T11:56:21;12.80;72.30
15483;DHT22;7843;50.330;7.312;2023-03-20T11:59:08;12.70;71.40
15483;DHT22;7843;50.330;7.312;2023-03-20T12:01:52;12.70;71.10
15483;DHT22;7843;50.330;7.312;2023-03-20T12:04:33;12.70;70.70
15483;DHT22;7843;50.330;7.312;2023-03-20T12:09:56;12.60;72.50
15483;DHT22;7843;50.330;7.312;2023-03-20T12:12:47;12.70;74.30
15483;DHT22;7843;50.330;7.312;2023-03-20T12:15:23;12.40;70.70
15483;DHT22;7843;50.330;7.312;2023-03-20T12:21:04;11.90;71.60
15483;DHT22;7843;50.330;7.312;2023-03-20T12:23:40;11.70;73.00
15483;DHT22;7843;50.330;7.312;2023-03-20T12:26:41;11.60;74.30
15483;DHT22;7843;50.330;7.312;2023-03-20T12:32:09;11.50;73.40
15483;DHT22;7843;50.330;7.312;2023-03-20T12:34:48;11.50;72.20
15483;DHT22;7843;50.330;7.312;2023-03-20T12:37:16;11.40;73.00
15483;DHT22;7843;50.330;7.312;2023-03-20T12:39:54;11.40;74.70
15483;DHT22;7843;50.330;7.312;2023-03-20T12:44:56;11.70;76.80
15483;DHT22;7843;50.330;7.312;2023-03-20T13:01:34;11.60;76.70
15483;DHT22;7843;50.330;7.312;2023-03-20T13:07:21;11.60;76.00
15483;DHT22;7843;50.330;7.312;2023-03-20T13:16:00;11.30;77.10
15483;DHT22;7843;50.330;7.312;2023-03-20T13:18:50;11.30;77.80
15483;DHT22;7843;50.330;7.312;2023-03-20T13:21:30;11.20;77.40
15483;DHT22;7843;50.330;7.312;2023-03-20T13:24:52;11.40;79.50
15483;DHT22;7843;50.330;7.312;2023-03-20T13:26:54;11.50;78.20
15483;DHT22;7843;50.330;7.312;2023-03-20T13:32:38;11.40;79.30
15483;DHT22;7843;50.330;7.312;2023-03-20T13:35:22;11.40;81.00
15483;DHT22;7843;50.330;7.312;2023-03-20T13:38:01;11.40;84.00
15483;DHT22;7843;50.330;7.312;2023-03-20T13:40:39;11.50;83.90
15483;DHT22;7843;50.330;7.312;2023-03-20T13:43:30;11.40;85.60
15483;DHT22;7843;50.330;7.312;2023-03-20T13:46:15;11.50;85.40
15483;DHT22;7843;50.330;7.312;2023-03-20T13:48:43;11.40;85.30
15483;DHT22;7843;50.330;7.312;2023-03-20T13:51:28;11.50;87.40
15483;DHT22;7843;50.330;7.312;2023-03-20T13:54:09;11.40;84.40
15483;DHT22;7843;50.330;7.312;2023-03-20T13:57:09;11.20;83.50
15483;DHT22;7843;50.330;7.312;2023-03-20T14:02:36;11.30;86.70
15483;DHT22;7843;50.330;7.312;2023-03-20T14:05:10;11.30;84.90
15483;DHT22;7843;50.330;7.312;2023-03-20T14:07:42;11.50;85.00
15483;DHT22;7843;50.330;7.312;2023-03-20T14:10:32;11.50;84.80
15483;DHT22;7843;50.330;7.312;2023-03-20T14:13:03;11.70;83.50
15483;DHT22;7843;50.330;7.312;2023-03-20T14:15:34;11.70;84.00
15483;DHT22;7843;50.330;7.312;2023-03-20T14:18:15;11.80;85.10
15483;DHT22;7843;50.330;7.312;2023-03-20T14:21:00;11.70;84.20
15483;DHT22;7843;50.330;7.312;2023-03-20T14:23:36;11.70;86.20
15483;DHT22;7843;50.330;7.312;2023-03-20T14:26:30;11.70;84.60
15483;DHT22;7843;50.330;7.312;2023-03-20T14:31:32;11.80;83.80
15483;DHT22;7843;50.330;7.312;2023-03-20T14:39:24;11.80;84.80
15483;DHT22;7843;50.330;7.312;2023-03-20T14:47:54;11.80;83.70
15483;DHT22;7843;50.330;7.312;2023-03-20T14:50:37;11.70;84.80
15483;DHT22;7843;50.330;7.312;2023-03-20T14:53:16;11.60;85.00
15483;DHT22;7843;50.330;7.312;2023-03-20T14:58:48;11.60;84.00
15483;DHT22;7843;50.330;7.312;2023-03-20T15:01:24;11.60;85.20
15483;DHT22;7843;50.330;7.312;2023-03-20T15:06:54;11.60;84.70
15483;DHT22;7843;50.330;7.312;2023-03-20T15:09:24;11.50;84.30
15483;DHT22;7843;50.330;7.312;2023-03-20T15:11:51;11.40;84.60
15483;DHT22;7843;50.330;7.312;2023-03-20T15:14:25;11.50;85.20
15483;DHT22;7843;50.330;7.312;2023-03-20T15:16:57;11.50;85.40
15483;DHT22;7843;50.330;7.312;2023-03-20T15:19:25;11.50;85.00
15483;DHT22;7843;50.330;7.312;2023-03-20T15:21:53;11.50;83.10
15483;DHT22;7843;50.330;7.312;2023-03-20T15:24:28;11.40;82.90
15483;DHT22;7843;50.330;7.312;2023-03-20T15:26:58;11.20;82.80
15483;DHT22;7843;50.330;7.312;2023-03-20T15:29:25;11.20;83.90
15483;DHT22;7843;50.330;7.312;2023-03-20T15:31:57;11.20;85.40
15483;DHT22;7843;50.330;7.312;2023-03-20T15:34:40;11.20;84.50
15483;DHT22;7843;50.330;7.312;2023-03-20T15:37:12;11.20;84.20
15483;DHT22;7843;50.330;7.312;2023-03-20T15:39:45;11.20;84.70
15483;DHT22;7843;50.330;7.312;2023-03-20T15:42:15;11.20;84.00
15483;DHT22;7843;50.330;7.312;2023-03-20T15:44:45;11.10;83.90
15483;DHT22;7843;50.330;7.312;2023-03-20T15:47:16;11.10;84.10
15483;DHT22;7843;50.330;7.312;2023-03-20T15:49:52;11.20;84.50
15483;DHT22;7843;50.330;7.312;2023-03-20T15:52:32;11.20;85.00
15483;DHT22;7843;50.330;7.312;2023-03-20T15:55:04;11.10;84.60
15483;DHT22;7843;50.330;7.312;2023-03-20T15:57:39;11.10;85.30
15483;DHT22;7843;50.330;7.312;2023-03-20T16:00:12;11.10;85.70
15483;DHT22;7843;50.330;7.312;2023-03-20T16:02:41;11.20;86.70
15483;DHT22;7843;50.330;7.312;2023-03-20T16:05:12;11.30;86.50
15483;DHT22;7843;50.330;7.312;2023-03-20T16:07:40;11.30;87.10
15483;DHT22;7843;50.330;7.312;2023-03-20T16:10:24;11.30;85.50
15483;DHT22;7843;50.330;7.312;2023-03-20T16:12:53;11.30;84.10
15483;DHT22;7843;50.330;7.312;2023-03-20T16:15:23;11.20;85.50
15483;DHT22;7843;50.330;7.312;2023-03-20T16:17:54;11.30;86.30
15483;DHT22;7843;50.330;7.312;2023-03-20T16:20:22;11.30;85.60
15483;DHT22;7843;50.330;7.312;2023-03-20T16:22:52;11.20;86.20
15483;DHT22;7843;50.330;7.312;2023-03-20T16:25:20;11.30;85.70
15483;DHT22;7843;50.330;7.312;2023-03-20T16:27:49;11.20;85.20
15483;DHT22;7843;50.330;7.312;2023-03-20T16:30:19;11.00;85.90
15483;DHT22;7843;50.330;7.312;2023-03-20T16:32:54;11.00;86.00
15483;DHT22;7843;50.330;7.312;2023-03-20T16:35:37;10.90;87.50
15483;DHT22;7843;50.330;7.312;2023-03-20T16:40:41;10.80;88.40
15483;DHT22;7843;50.330;7.312;2023-03-20T16:43:12;10.70;87.80
15483;DHT22;7843;50.330;7.312;2023-03-20T16:45:41;10.60;88.50
15483;DHT22;7843;50.330;7.312;2023-03-20T16:50:42;10.50;87.70
15483;DHT22;7843;50.330;7.312;2023-03-20T16:53:13;10.50;88.00
15483;DHT22;7843;50.330;7.312;2023-03-20T16:55:46;10.50;87.80
15483;DHT22;7843;50.330;7.312;2023-03-20T16:58:20;10.50;87.90
15483;DHT22;7843;50.330;7.312;2023-03-20T17:03:27;10.50;88.40
15483;DHT22;7843;50.330;7.312;2023-03-20T17:06:07;10.40;88.10
15483;DHT22;7843;50.330;7.312;2023-03-20T17:08:40;10.40;88.70
15483;DHT22;7843;50.330;7.312;2023-03-20T17:11:21;10.40;89.20
15483;DHT22;7843;50.330;7.312;2023-03-20T17:13:48;10.40;88.60
15483;DHT22;7843;50.330;7.312;2023-03-20T17:16:19;10.40;88.00
15483;DHT22;7843;50.330;7.312;2023-03-20T17:19:01;10.30;89.40
15483;DHT22;7843;50.330;7.312;2023-03-20T17:21:30;10.30;89.00
15483;DHT22;7843;50.330;7.312;2023-03-20T17:23:57;10.30;88.60
15483;DHT22;7843;50.330;7.312;2023-03-20T17:26:24;10.20;89.70
15483;DHT22;7843;50.330;7.312;2023-03-20T17:28:50;10.20;89.70
15483;DHT22;7843;50.330;7.312;2023-03-20T17:31:17;10.20;89.50
15483;DHT22;7843;50.330;7.312;2023-03-20T17:33:45;10.20;88.90
15483;DHT22;7843;50.330;7.312;2023-03-20T17:36:24;10.10;90.40
15483;DHT22;7843;50.330;7.312;2023-03-20T17:38:52;10.00;90.80
15483;DHT22;7843;50.330;7.312;2023-03-20T17:41:20;10.00;91.30
15483;DHT22;7843;50.330;7.312;2023-03-20T17:43:48;10.00;91.50
15483;DHT22;7843;50.330;7.312;2023-03-20T17:46:37;10.00;91.60
15483;DHT22;7843;50.330;7.312;2023-03-20T17:49:21;10.00;90.50
15483;DHT22;7843;50.330;7.312;2023-03-20T17:51:53;9.90;91.00
15483;DHT22;7843;50.330;7.312;2023-03-20T17:54:19;9.90;91.00
15483;DHT22;7843;50.330;7.312;2023-03-20T17:56:46;9.80;91.70
15483;DHT22;7843;50.330;7.312;2023-03-20T17:59:14;9.80;91.10
15483;DHT22;7843;50.330;7.312;2023-03-20T18:01:41;9.80;91.30
15483;DHT22;7843;50.330;7.312;2023-03-20T18:04:08;9.80;91.30
15483;DHT22;7843;50.330;7.312;2023-03-20T18:06:35;9.70;92.20
15483;DHT22;7843;50.330;7.312;2023-03-20T18:09:02;9.70;92.50
15483;DHT22;7843;50.330;7.312;2023-03-20T18:11:29;9.60;93.50
15483;DHT22;7843;50.330;7.312;2023-03-20T18:13:56;9.60;94.40
15483;DHT22;7843;50.330;7.312;2023-03-20T18:16:24;9.50;95.40
15483;DHT22;7843;50.330;7.312;2023-03-20T18:18:52;9.40;95.90
15483;DHT22;7843;50.330;7.312;2023-03-20T18:21:19;9.40;95.40
15483;DHT22;7843;50.330;7.312;2023-03-20T18:23:46;9.30;95.00
15483;DHT22;7843;50.330;7.312;2023-03-20T18:26:17;9.30;96.90
15483;DHT22;7843;50.330;7.312;2023-03-20T18:28:44;9.20;97.60